sensor_id;sensor_type;location;lat;lon;timestamp;pressure;altitude;pressure_sealevel;temperature;humidity
69667;BME280;66534;52.370;4.832;2023-07-02T00:00:10;100674.44;;;17.09;100.00
69667;BME280;66534;52.370;4.832;2023-07-02T00:00:41;100671.69;;;17.10;100.00
69667;BME280;66534;52.370;4.832;2023-07-02T00:01:11;100673.16;;;17.14;100.00
69667;BME280;66534;52.370;4.832;2023-07-02T00:01:43;100673.88;;;17.16;100.00
69667;BME280;66534;52.370;4.832;2023-07-02T00:02:14;100671.50;;;17.25;100.00
69667;BME280;66534;52.370;4.832;2023-07-02T00:02:45;100668.84;;;17.25;100.00
69667;BME280;66534;52.370;4.832;2023-07-02T00:03:15;100676.84;;;17.36;100.00
69667;BME280;66534;52.370;4.832;2023-07-02T00:03:46;100671.66;;;17.34;100.00
69667;BME280;66534;52.370;4.832;2023-07-02T00:04:16;100665.41;;;17.35;100.00
69667;BME280;66534;52.370;4.832;2023-07-02T00:04:49;100675.75;;;17.27;100.00
69667;BME280;66534;52.370;4.832;2023-07-02T00:05:20;100675.63;;;17.29;100.00
69667;BME280;66534;52.370;4.832;2023-07-02T00:05:50;100675.69;;;17.16;100.00
69667;BME280;66534;52.370;4.832;2023-07-02T00:06:24;100673.38;;;17.11;100.00
69667;BME280;66534;52.370;4.832;2023-07-02T00:06:55;100678.75;;;17.23;100.00
69667;BME280;66534;52.370;4.832;2023-07-02T00:07:25;100671.22;;;17.16;100.00
69667;BME280;66534;52.370;4.832;2023-07-02T00:07:56;100667.34;;;17.09;100.00
69667;BME280;66534;52.370;4.832;2023-07-02T00:08:27;100677.84;;;17.11;100.00
69667;BME280;66534;52.370;4.832;2023-07-02T00:08:57;100672.31;;;17.14;100.00
69667;BME280;66534;52.370;4.832;2023-07-02T00:09:28;100670.38;;;17.16;100.00
69667;BME280;66534;52.370;4.832;2023-07-02T00:09:58;100670.25;;;17.17;100.00
69667;BME280;66534;52.370;4.832;2023-07-02T00:10:28;100669.53;;;17.15;100.00
69667;BME280;66534;52.370;4.832;2023-07-02T00:10:59;100669.66;;;17.14;100.00
69667;BME280;66534;52.370;4.832;2023-07-02T00:11:29;100669.06;;;17.10;100.00
69667;BME280;66534;52.370;4.832;2023-07-02T00:12:00;100666.00;;;17.04;100.00
69667;BME280;66534;52.370;4.832;2023-07-02T00:12:30;100670.25;;;17.06;100.00
69667;BME280;66534;52.370;4.832;2023-07-02T00:13:01;100678.56;;;17.13;100.00
69667;BME280;66534;52.370;4.832;2023-07-02T00:13:31;100668.53;;;17.05;100.00
69667;BME280;66534;52.370;4.832;2023-07-02T00:14:01;100665.03;;;17.05;100.00
69667;BME280;66534;52.370;4.832;2023-07-02T00:14:32;100670.72;;;17.11;100.00
69667;BME280;66534;52.370;4.832;2023-07-02T00:15:02;100666.28;;;17.12;100.00
69667;BME280;66534;52.370;4.832;2023-07-02T00:15:33;100674.34;;;17.10;100.00
69667;BME280;66534;52.370;4.832;2023-07-02T00:16:04;100669.63;;;17.03;100.00
69667;BME280;66534;52.370;4.832;2023-07-02T00:16:35;100668.94;;;17.12;100.00
69667;BME280;66534;52.370;4.832;2023-07-02T00:17:10;100672.97;;;17.05;100.00
69667;BME280;66534;52.370;4.832;2023-07-02T00:17:43;100665.28;;;17.02;100.00
69667;BME280;66534;52.370;4.832;2023-07-02T00:18:14;100673.50;;;17.10;100.00
69667;BME280;66534;52.370;4.832;2023-07-02T00:18:46;100666.63;;;17.07;100.00
69667;BME280;66534;52.370;4.832;2023-07-02T00:19:18;100667.06;;;17.01;100.00
69667;BME280;66534;52.370;4.832;2023-07-02T00:19:48;100672.81;;;16.95;100.00
69667;BME280;66534;52.370;4.832;2023-07-02T00:20:21;100667.66;;;16.93;100.00
69667;BME280;66534;52.370;4.832;2023-07-02T00:20:52;100667.66;;;16.93;100.00
69667;BME280;66534;52.370;4.832;2023-07-02T00:21:22;100675.34;;;16.97;100.00
69667;BME280;66534;52.370;4.832;2023-07-02T00:21:58;100666.47;;;16.98;100.00
69667;BME280;66534;52.370;4.832;2023-07-02T00:22:28;100672.13;;;17.04;100.00
69667;BME280;66534;52.370;4.832;2023-07-02T00:23:00;100665.09;;;16.92;100.00
69667;BME280;66534;52.370;4.832;2023-07-02T00:23:31;100661.25;;;16.96;100.00
69667;BME280;66534;52.370;4.832;2023-07-02T00:24:01;100662.69;;;16.89;100.00
69667;BME280;66534;52.370;4.832;2023-07-02T00:24:32;100663.25;;;16.81;100.00
69667;BME280;66534;52.370;4.832;2023-07-02T00:25:02;100664.81;;;16.84;100.00
69667;BME280;66534;52.370;4.832;2023-07-02T00:25:33;100668.44;;;16.83;100.00
69667;BME280;66534;52.370;4.832;2023-07-02T00:26:03;100666.00;;;16.80;100.00
69667;BME280;66534;52.370;4.832;2023-07-02T00:26:33;100665.91;;;16.81;100.00
69667;BME280;66534;52.370;4.832;2023-07-02T00:27:04;100666.41;;;16.86;100.00
69667;BME280;66534;52.370;4.832;2023-07-02T00:27:34;100665.66;;;16.84;100.00
69667;BME280;66534;52.370;4.832;2023-07-02T00:28:05;100673.09;;;16.79;100.00
69667;BME280;66534;52.370;4.832;2023-07-02T00:28:35;100664.09;;;16.82;100.00
69667;BME280;66534;52.370;4.832;2023-07-02T00:29:05;100671.19;;;16.81;100.00
69667;BME280;66534;52.370;4.832;2023-07-02T00:29:37;100666.69;;;16.95;100.00
69667;BME280;66534;52.370;4.832;2023-07-02T00:30:08;100676.03;;;16.87;100.00
69667;BME280;66534;52.370;4.832;2023-07-02T00:30:39;100676.53;;;16.92;100.00
69667;BME280;66534;52.370;4.832;2023-07-02T00:31:09;100673.31;;;17.00;100.00
69667;BME280;66534;52.370;4.832;2023-07-02T00:31:40;100669.97;;;16.98;100.00
69667;BME280;66534;52.370;4.832;2023-07-02T00:32:10;100668.22;;;16.86;100.00
69667;BME280;66534;52.370;4.832;2023-07-02T00:32:41;100672.75;;;16.84;100.00
69667;BME280;66534;52.370;4.832;2023-07-02T00:33:11;100670.84;;;16.86;100.00
69667;BME280;66534;52.370;4.832;2023-07-02T00:33:42;100670.06;;;16.73;100.00
69667;BME280;66534;52.370;4.832;2023-07-02T00:34:12;100661.66;;;16.79;100.00
69667;BME280;66534;52.370;4.832;2023-07-02T00:34:42;100664.59;;;16.87;100.00
69667;BME280;66534;52.370;4.832;2023-07-02T00:35:13;100668.84;;;16.89;100.00
69667;BME280;66534;52.370;4.832;2023-07-02T00:35:44;100666.63;;;16.83;100.00
69667;BME280;66534;52.370;4.832;2023-07-02T00:36:14;100659.53;;;16.71;100.00
69667;BME280;66534;52.370;4.832;2023-07-02T00:36:45;100666.97;;;16.66;100.00
69667;BME280;66534;52.370;4.832;2023-07-02T00:37:16;100670.47;;;16.66;100.00
69667;BME280;66534;52.370;4.832;2023-07-02T00:37:46;100669.09;;;16.74;100.00
69667;BME280;66534;52.370;4.832;2023-07-02T00:38:17;100667.94;;;16.65;100.00
69667;BME280;66534;52.370;4.832;2023-07-02T00:38:48;100676.09;;;16.62;100.00
69667;BME280;66534;52.370;4.832;2023-07-02T00:39:19;100673.75;;;16.70;100.00
69667;BME280;66534;52.370;4.832;2023-07-02T00:39:49;100667.81;;;16.66;100.00
69667;BME280;66534;52.370;4.832;2023-07-02T00:40:20;100667.44;;;16.60;100.00
69667;BME280;66534;52.370;4.832;2023-07-02T00:40:50;100665.72;;;16.59;100.00
69667;BME280;66534;52.370;4.832;2023-07-02T00:41:20;100670.31;;;16.57;100.00
69667;BME280;66534;52.370;4.832;2023-07-02T00:41:51;100667.19;;;16.63;100.00
69667;BME280;66534;52.370;4.832;2023-07-02T00:42:21;100676.09;;;16.62;100.00
69667;BME280;66534;52.370;4.832;2023-07-02T00:42:53;100668.91;;;16.64;100.00
69667;BME280;66534;52.370;4.832;2023-07-02T00:43:23;100663.38;;;16.67;100.00
69667;BME280;66534;52.370;4.832;2023-07-02T00:43:54;100669.84;;;16.63;100.00
69667;BME280;66534;52.370;4.832;2023-07-02T00:44:24;100663.38;;;16.67;100.00
69667;BME280;66534;52.370;4.832;2023-07-02T00:44:55;100665.69;;;16.72;100.00
69667;BME280;66534;52.370;4.832;2023-07-02T00:45:32;100669.47;;;16.80;100.00
69667;BME280;66534;52.370;4.832;2023-07-02T00:46:03;100670.06;;;16.73;100.00
69667;BME280;66534;52.370;4.832;2023-07-02T00:46:35;100666.56;;;16.72;100.00
69667;BME280;66534;52.370;4.832;2023-07-02T00:47:06;100670.13;;;16.71;100.00
69667;BME280;66534;52.370;4.832;2023-07-02T00:47:40;100663.97;;;16.83;100.00
69667;BME280;66534;52.370;4.832;2023-07-02T00:48:10;100675.53;;;16.82;100.00
69667;BME280;66534;52.370;4.832;2023-07-02T00:48:41;100668.78;;;16.78;100.00
69667;BME280;66534;52.370;4.832;2023-07-02T00:49:12;100668.94;;;16.88;100.00
69667;BME280;66534;52.370;4.832;2023-07-02T00:49:42;100672.31;;;16.90;100.00
69667;BME280;66534;52.370;4.832;2023-07-02T00:50:13;100674.50;;;16.72;100.00
69667;BME280;66534;52.370;4.832;2023-07-02T00:50:44;100668.25;;;16.73;100.00
69667;BME280;66534;52.370;4.832;2023-07-02T00:51:16;100668.31;;;16.84;100.00
69667;BME280;66534;52.370;4.832;2023-07-02T00:51:56;100669.59;;;16.79;100.00
69667;BME280;66534;52.370;4.832;2023-07-02T00:52:27;100668.44;;;16.70;100.00
69667;BME280;66534;52.370;4.832;2023-07-02T00:52:58;100668.78;;;16.65;100.00
69667;BME280;66534;52.370;4.832;2023-07-02T00:53:28;100671.56;;;16.64;100.00
69667;BME280;66534;52.370;4.832;2023-07-02T00:53:59;100667.97;;;16.52;100.00
69667;BME280;66534;52.370;4.832;2023-07-02T00:54:30;100674.75;;;16.56;100.00
69667;BME280;66534;52.370;4.832;2023-07-02T00:55:02;100669.84;;;16.63;100.00
69667;BME280;66534;52.370;4.832;2023-07-02T00:55:32;100677.69;;;16.64;100.00
69667;BME280;66534;52.370;4.832;2023-07-02T00:56:03;100669.22;;;16.59;100.00
69667;BME280;66534;52.370;4.832;2023-07-02T00:56:33;100676.31;;;16.59;100.00
69667;BME280;66534;52.370;4.832;2023-07-02T00:57:04;100671.59;;;16.51;100.00
69667;BME280;66534;52.370;4.832;2023-07-02T00:57:35;100671.69;;;16.50;100.00
69667;BME280;66534;52.370;4.832;2023-07-02T00:58:06;100669.47;;;16.56;100.00
69667;BME280;66534;52.370;4.832;2023-07-02T00:58:41;100671.84;;;16.59;100.00
69667;BME280;66534;52.370;4.832;2023-07-02T00:59:18;100671.19;;;16.44;100.00
69667;BME280;66534;52.370;4.832;2023-07-02T00:59:48;100669.91;;;16.37;100.00
69667;BME280;66534;52.370;4.832;2023-07-02T01:00:22;100669.19;;;16.35;100.00
69667;BME280;66534;52.370;4.832;2023-07-02T01:00:53;100676.63;;;16.30;100.00
69667;BME280;66534;52.370;4.832;2023-07-02T01:01:27;100676.38;;;16.33;100.00
69667;BME280;66534;52.370;4.832;2023-07-02T01:01:58;100671.00;;;16.35;100.00
69667;BME280;66534;52.370;4.832;2023-07-02T01:02:28;100681.47;;;16.36;100.00
69667;BME280;66534;52.370;4.832;2023-07-02T01:02:59;100674.50;;;16.35;100.00
69667;BME280;66534;52.370;4.832;2023-07-02T01:03:30;100679.25;;;16.43;100.00
69667;BME280;66534;52.370;4.832;2023-07-02T01:04:03;100675.22;;;16.37;100.00
69667;BME280;66534;52.370;4.832;2023-07-02T01:04:35;100676.69;;;16.41;100.00
69667;BME280;66534;52.370;4.832;2023-07-02T01:05:05;100676.13;;;16.49;100.00
69667;BME280;66534;52.370;4.832;2023-07-02T01:05:36;100666.72;;;16.45;100.00
69667;BME280;66534;52.370;4.832;2023-07-02T01:06:06;100670.88;;;16.36;100.00
69667;BME280;66534;52.370;4.832;2023-07-02T01:06:37;100676.34;;;16.46;100.00
69667;BME280;66534;52.370;4.832;2023-07-02T01:07:11;100677.44;;;16.43;100.00
69667;BME280;66534;52.370;4.832;2023-07-02T01:07:41;100674.66;;;16.45;100.00
69667;BME280;66534;52.370;4.832;2023-07-02T01:08:11;100678.06;;;16.47;100.00
69667;BME280;66534;52.370;4.832;2023-07-02T01:08:42;100679.53;;;16.38;100.00
69667;BME280;66534;52.370;4.832;2023-07-02T01:09:12;100672.06;;;16.32;100.00
69667;BME280;66534;52.370;4.832;2023-07-02T01:09:43;100679.16;;;16.32;100.00
69667;BME280;66534;52.370;4.832;2023-07-02T01:10:13;100671.00;;;16.35;100.00
69667;BME280;66534;52.370;4.832;2023-07-02T01:10:44;100676.00;;;16.27;100.00
69667;BME280;66534;52.370;4.832;2023-07-02T01:11:14;100673.66;;;16.35;100.00
69667;BME280;66534;52.370;4.832;2023-07-02T01:11:46;100677.56;;;16.29;100.00
69667;BME280;66534;52.370;4.832;2023-07-02T01:12:20;100675.75;;;16.30;100.00
69667;BME280;66534;52.370;4.832;2023-07-02T01:12:52;100671.31;;;16.17;100.00
69667;BME280;66534;52.370;4.832;2023-07-02T01:13:24;100680.53;;;16.25;100.00
69667;BME280;66534;52.370;4.832;2023-07-02T01:13:58;100669.63;;;16.29;100.00
69667;BME280;66534;52.370;4.832;2023-07-02T01:14:34;100675.22;;;16.37;100.00
69667;BME280;66534;52.370;4.832;2023-07-02T01:15:08;100676.84;;;16.27;100.00
69667;BME280;66534;52.370;4.832;2023-07-02T01:15:39;100674.09;;;16.16;100.00
69667;BME280;66534;52.370;4.832;2023-07-02T01:16:10;100674.72;;;16.19;100.00
69667;BME280;66534;52.370;4.832;2023-07-02T01:16:41;100682.34;;;16.24;100.00
69667;BME280;66534;52.370;4.832;2023-07-02T01:17:13;100679.78;;;16.35;100.00
69667;BME280;66534;52.370;4.832;2023-07-02T01:17:49;100675.00;;;16.40;100.00
69667;BME280;66534;52.370;4.832;2023-07-02T01:18:19;100679.47;;;16.40;100.00
69667;BME280;66534;52.370;4.832;2023-07-02T01:18:50;100678.72;;;16.25;100.00
69667;BME280;66534;52.370;4.832;2023-07-02T01:20:02;100679.28;;;16.30;100.00
69667;BME280;66534;52.370;4.832;2023-07-02T01:20:38;100679.50;;;16.14;100.00
69667;BME280;66534;52.370;4.832;2023-07-02T01:21:09;100678.41;;;16.17;100.00
69667;BME280;66534;52.370;4.832;2023-07-02T01:21:40;100682.47;;;16.23;100.00
69667;BME280;66534;52.370;4.832;2023-07-02T01:22:11;100676.91;;;16.26;100.00
69667;BME280;66534;52.370;4.832;2023-07-02T01:22:42;100677.19;;;16.47;100.00
69667;BME280;66534;52.370;4.832;2023-07-02T01:23:13;100679.47;;;16.40;100.00
69667;BME280;66534;52.370;4.832;2023-07-02T01:23:43;100683.69;;;16.30;100.00
69667;BME280;66534;52.370;4.832;2023-07-02T01:24:14;100674.94;;;16.16;100.00
69667;BME280;66534;52.370;4.832;2023-07-02T01:24:46;100682.03;;;16.16;100.00
69667;BME280;66534;52.370;4.832;2023-07-02T01:25:18;100682.25;;;16.13;100.00
69667;BME280;66534;52.370;4.832;2023-07-02T01:25:51;100678.53;;;16.15;100.00
69667;BME280;66534;52.370;4.832;2023-07-02T01:26:21;100684.03;;;16.25;100.00
69667;BME280;66534;52.370;4.832;2023-07-02T01:26:52;100677.50;;;16.18;100.00
69667;BME280;66534;52.370;4.832;2023-07-02T01:27:23;100676.63;;;16.17;100.00
69667;BME280;66534;52.370;4.832;2023-07-02T01:27:53;100674.88;;;16.05;100.00
69667;BME280;66534;52.370;4.832;2023-07-02T01:28:27;100675.25;;;16.12;100.00
69667;BME280;66534;52.370;4.832;2023-07-02T01:29:15;100686.16;;;16.07;100.00
69667;BME280;66534;52.370;4.832;2023-07-02T01:29:47;100676.75;;;16.03;100.00
69667;BME280;66534;52.370;4.832;2023-07-02T01:30:21;100680.69;;;15.98;100.00
69667;BME280;66534;52.370;4.832;2023-07-02T01:30:51;100680.25;;;16.04;100.00
69667;BME280;66534;52.370;4.832;2023-07-02T01:31:22;100676.88;;;16.02;100.00
69667;BME280;66534;52.370;4.832;2023-07-02T01:31:55;100672.41;;;16.02;100.00
69667;BME280;66534;52.370;4.832;2023-07-02T01:32:26;100681.63;;;16.09;100.00
69667;BME280;66534;52.370;4.832;2023-07-02T01:32:57;100679.06;;;16.08;100.00
69667;BME280;66534;52.370;4.832;2023-07-02T01:33:27;100679.72;;;16.11;100.00
69667;BME280;66534;52.370;4.832;2023-07-02T01:33:58;100681.81;;;16.19;100.00
69667;BME280;66534;52.370;4.832;2023-07-02T01:34:28;100680.34;;;16.15;100.00
69667;BME280;66534;52.370;4.832;2023-07-02T01:34:59;100676.00;;;16.14;100.00
69667;BME280;66534;52.370;4.832;2023-07-02T01:35:31;100675.78;;;16.17;100.00
69667;BME280;66534;52.370;4.832;2023-07-02T01:36:01;100683.28;;;16.23;100.00
69667;BME280;66534;52.370;4.832;2023-07-02T01:36:31;100676.53;;;16.19;100.00
69667;BME280;66534;52.370;4.832;2023-07-02T01:37:02;100678.66;;;16.14;100.00
69667;BME280;66534;52.370;4.832;2023-07-02T01:37:34;100679.59;;;16.13;100.00
69667;BME280;66534;52.370;4.832;2023-07-02T01:38:07;100683.00;;;16.15;100.00
69667;BME280;66534;52.370;4.832;2023-07-02T01:38:38;100681.84;;;16.06;100.00
69667;BME280;66534;52.370;4.832;2023-07-02T01:39:08;100682.16;;;16.02;100.00
69667;BME280;66534;52.370;4.832;2023-07-02T01:39:39;100678.75;;;16.00;100.00
69667;BME280;66534;52.370;4.832;2023-07-02T01:40:09;100681.84;;;16.06;100.00
69667;BME280;66534;52.370;4.832;2023-07-02T01:40:40;100676.75;;;16.03;100.00
69667;BME280;66534;52.370;4.832;2023-07-02T01:41:10;100681.09;;;16.04;100.00
69667;BME280;66534;52.370;4.832;2023-07-02T01:41:54;100679.09;;;15.95;100.00
69667;BME280;66534;52.370;4.832;2023-07-02T01:42:25;100679.59;;;16.00;100.00
69667;BME280;66534;52.370;4.832;2023-07-02T01:42:56;100679.06;;;16.08;100.00
69667;BME280;66534;52.370;4.832;2023-07-02T01:43:26;100670.72;;;16.14;100.00
69667;BME280;66534;52.370;4.832;2023-07-02T01:43:56;100671.31;;;16.17;100.00
69667;BME280;66534;52.370;4.832;2023-07-02T01:44:27;100683.06;;;16.13;100.00
69667;BME280;66534;52.370;4.832;2023-07-02T01:44:57;100674.28;;;16.13;100.00
69667;BME280;66534;52.370;4.832;2023-07-02T01:45:28;100677.50;;;16.05;100.00
69667;BME280;66534;52.370;4.832;2023-07-02T01:45:58;100678.53;;;16.15;100.00
69667;BME280;66534;52.370;4.832;2023-07-02T01:46:29;100678.41;;;16.30;100.00
69667;BME280;66534;52.370;4.832;2023-07-02T01:46:59;100675.91;;;16.15;100.00
69667;BME280;66534;52.370;4.832;2023-07-02T01:47:30;100677.59;;;16.04;100.00
69667;BME280;66534;52.370;4.832;2023-07-02T01:48:00;100681.19;;;16.03;100.00
69667;BME280;66534;52.370;4.832;2023-07-02T01:48:31;100674.88;;;16.05;100.00
69667;BME280;66534;52.370;4.832;2023-07-02T01:49:01;100684.16;;;15.98;100.00
69667;BME280;66534;52.370;4.832;2023-07-02T01:49:32;100672.09;;;15.94;100.00
69667;BME280;66534;52.370;4.832;2023-07-02T01:50:03;100680.88;;;15.94;100.00
69667;BME280;66534;52.370;4.832;2023-07-02T01:50:35;100673.69;;;15.97;100.00
69667;BME280;66534;52.370;4.832;2023-07-02T01:51:05;100674.22;;;16.02;100.00
69667;BME280;66534;52.370;4.832;2023-07-02T01:51:36;100670.09;;;15.98;100.00
69667;BME280;66534;52.370;4.832;2023-07-02T01:52:08;100674.63;;;15.96;100.00
69667;BME280;66534;52.370;4.832;2023-07-02T01:52:38;100676.22;;;15.98;100.00
69667;BME280;66534;52.370;4.832;2023-07-02T01:53:09;100675.47;;;15.96;100.00
69667;BME280;66534;52.370;4.832;2023-07-02T01:53:39;100676.44;;;15.95;100.00
69667;BME280;66534;52.370;4.832;2023-07-02T01:54:09;100679.19;;;15.93;100.00
69667;BME280;66534;52.370;4.832;2023-07-02T01:54:40;100683.09;;;16.01;100.00
69667;BME280;66534;52.370;4.832;2023-07-02T01:55:10;100683.00;;;16.02;100.00
69667;BME280;66534;52.370;4.832;2023-07-02T01:55:41;100682.25;;;16.13;100.00
69667;BME280;66534;52.370;4.832;2023-07-02T01:56:11;100687.53;;;16.13;100.00
69667;BME280;66534;52.370;4.832;2023-07-02T01:56:42;100682.47;;;16.10;100.00
69667;BME280;66534;52.370;4.832;2023-07-02T01:57:12;100688.38;;;16.01;100.00
69667;BME280;66534;52.370;4.832;2023-07-02T01:57:43;100684.25;;;15.97;100.00
69667;BME280;66534;52.370;4.832;2023-07-02T01:58:13;100684.69;;;16.03;100.00
69667;BME280;66534;52.370;4.832;2023-07-02T01:58:43;100686.50;;;16.03;100.00
69667;BME280;66534;52.370;4.832;2023-07-02T01:59:15;100694.22;;;16.06;100.00
69667;BME280;66534;52.370;4.832;2023-07-02T01:59:46;100684.47;;;16.06;100.00
69667;BME280;66534;52.370;4.832;2023-07-02T02:00:17;100688.28;;;16.02;100.00
69667;BME280;66534;52.370;4.832;2023-07-02T02:00:47;100685.03;;;15.86;100.00
69667;BME280;66534;52.370;4.832;2023-07-02T02:01:18;100685.34;;;15.94;100.00
69667;BME280;66534;52.370;4.832;2023-07-02T02:01:48;100684.69;;;15.90;100.00
69667;BME280;66534;52.370;4.832;2023-07-02T02:02:19;100694.00;;;15.83;100.00
69667;BME280;66534;52.370;4.832;2023-07-02T02:02:50;100689.88;;;15.92;100.00
69667;BME280;66534;52.370;4.832;2023-07-02T02:03:21;100682.88;;;16.04;100.00
69667;BME280;66534;52.370;4.832;2023-07-02T02:03:52;100682.56;;;16.08;100.00
69667;BME280;66534;52.370;4.832;2023-07-02T02:04:22;100687.97;;;16.07;100.00
69667;BME280;66534;52.370;4.832;2023-07-02T02:04:53;100684.50;;;15.93;100.00
69667;BME280;66534;52.370;4.832;2023-07-02T02:05:23;100680.69;;;15.98;100.00
69667;BME280;66534;52.370;4.832;2023-07-02T02:05:54;100682.69;;;15.94;100.00
69667;BME280;66534;52.370;4.832;2023-07-02T02:06:24;100684.38;;;15.95;100.00
69667;BME280;66534;52.370;4.832;2023-07-02T02:06:55;100683.75;;;15.91;100.00
69667;BME280;66534;52.370;4.832;2023-07-02T02:07:26;100689.16;;;15.90;100.00
69667;BME280;66534;52.370;4.832;2023-07-02T02:07:56;100687.34;;;15.90;100.00
69667;BME280;66534;52.370;4.832;2023-07-02T02:08:27;100684.06;;;15.87;100.00
69667;BME280;66534;52.370;4.832;2023-07-02T02:08:57;100684.81;;;15.89;100.00
69667;BME280;66534;52.370;4.832;2023-07-02T02:09:27;100689.88;;;15.92;100.00
69667;BME280;66534;52.370;4.832;2023-07-02T02:10:00;100684.81;;;16.02;100.00
69667;BME280;66534;52.370;4.832;2023-07-02T02:10:30;100683.63;;;16.06;100.00
69667;BME280;66534;52.370;4.832;2023-07-02T02:11:01;100683.84;;;16.03;100.00
69667;BME280;66534;52.370;4.832;2023-07-02T02:11:32;100679.94;;;15.96;100.00
69667;BME280;66534;52.370;4.832;2023-07-02T02:12:03;100681.09;;;16.04;100.00
69667;BME280;66534;52.370;4.832;2023-07-02T02:12:34;100683.31;;;16.10;100.00
69667;BME280;66534;52.370;4.832;2023-07-02T02:13:04;100682.03;;;16.03;100.00
69667;BME280;66534;52.370;4.832;2023-07-02T02:13:35;100676.22;;;15.98;100.00
69667;BME280;66534;52.370;4.832;2023-07-02T02:14:05;100678.75;;;15.87;100.00
69667;BME280;66534;52.370;4.832;2023-07-02T02:14:36;100679.53;;;15.89;100.00
69667;BME280;66534;52.370;4.832;2023-07-02T02:15:06;100680.88;;;15.94;100.00
69667;BME280;66534;52.370;4.832;2023-07-02T02:15:37;100677.91;;;15.86;100.00
69667;BME280;66534;52.370;4.832;2023-07-02T02:16:08;100676.13;;;15.87;100.00
69667;BME280;66534;52.370;4.832;2023-07-02T02:16:38;100668.63;;;15.93;100.00
69667;BME280;66534;52.370;4.832;2023-07-02T02:17:09;100676.75;;;15.90;100.00
69667;BME280;66534;52.370;4.832;2023-07-02T02:17:39;100673.28;;;15.77;100.00
69667;BME280;66534;52.370;4.832;2023-07-02T02:18:09;100677.09;;;15.73;100.00
69667;BME280;66534;52.370;4.832;2023-07-02T02:18:40;100684.38;;;15.82;100.00
69667;BME280;66534;52.370;4.832;2023-07-02T02:19:11;100677.91;;;15.86;100.00
69667;BME280;66534;52.370;4.832;2023-07-02T02:19:42;100680.78;;;15.96;100.00
69667;BME280;66534;52.370;4.832;2023-07-02T02:20:12;100674.56;;;15.97;100.00
69667;BME280;66534;52.370;4.832;2023-07-02T02:20:43;100681.72;;;15.95;100.00
69667;BME280;66534;52.370;4.832;2023-07-02T02:21:13;100685.97;;;15.98;100.00
69667;BME280;66534;52.370;4.832;2023-07-02T02:21:44;100680.56;;;15.86;100.00
69667;BME280;66534;52.370;4.832;2023-07-02T02:22:14;100679.53;;;15.89;100.00
69667;BME280;66534;52.370;4.832;2023-07-02T02:22:44;100679.41;;;15.90;100.00
69667;BME280;66534;52.370;4.832;2023-07-02T02:23:15;100687.53;;;15.87;100.00
69667;BME280;66534;52.370;4.832;2023-07-02T02:23:45;100688.94;;;15.80;100.00
69667;BME280;66534;52.370;4.832;2023-07-02T02:24:16;100685.66;;;15.77;100.00
69667;BME280;66534;52.370;4.832;2023-07-02T02:24:46;100680.38;;;15.77;100.00
69667;BME280;66534;52.370;4.832;2023-07-02T02:25:17;100683.66;;;15.67;100.00
69667;BME280;66534;52.370;4.832;2023-07-02T02:25:47;100684.50;;;15.81;100.00
69667;BME280;66534;52.370;4.832;2023-07-02T02:26:18;100681.09;;;15.79;100.00
69667;BME280;66534;52.370;4.832;2023-07-02T02:26:51;100683.53;;;15.82;100.00
69667;BME280;66534;52.370;4.832;2023-07-02T02:27:22;100683.41;;;15.83;100.00
69667;BME280;66534;52.370;4.832;2023-07-02T02:27:52;100688.06;;;15.80;100.00
69667;BME280;66534;52.370;4.832;2023-07-02T02:28:22;100683.66;;;15.67;100.00
69667;BME280;66534;52.370;4.832;2023-07-02T02:28:53;100681.41;;;15.74;100.00
69667;BME280;66534;52.370;4.832;2023-07-02T02:29:23;100689.88;;;15.79;100.00
69667;BME280;66534;52.370;4.832;2023-07-02T02:29:54;100689.47;;;15.85;100.00
69667;BME280;66534;52.370;4.832;2023-07-02T02:30:24;100690.09;;;15.89;100.00
69667;BME280;66534;52.370;4.832;2023-07-02T02:30:54;100691.66;;;15.79;100.00
69667;BME280;66534;52.370;4.832;2023-07-02T02:31:25;100685.09;;;15.72;100.00
69667;BME280;66534;52.370;4.832;2023-07-02T02:31:55;100690.94;;;15.77;100.00
69667;BME280;66534;52.370;4.832;2023-07-02T02:32:26;100686.59;;;15.76;100.00
69667;BME280;66534;52.370;4.832;2023-07-02T02:32:56;100690.63;;;15.68;100.00
69667;BME280;66534;52.370;4.832;2023-07-02T02:33:27;100698.31;;;15.72;100.00
69667;BME280;66534;52.370;4.832;2023-07-02T02:33:57;100692.09;;;15.85;100.00
69667;BME280;66534;52.370;4.832;2023-07-02T02:34:28;100695.81;;;15.83;100.00
69667;BME280;66534;52.370;4.832;2023-07-02T02:34:59;100700.56;;;15.78;100.00
69667;BME280;66534;52.370;4.832;2023-07-02T02:35:29;100698.44;;;15.70;100.00
69667;BME280;66534;52.370;4.832;2023-07-02T02:36:00;100700.97;;;15.72;100.00
69667;BME280;66534;52.370;4.832;2023-07-02T02:36:31;100707.31;;;15.69;100.00
69667;BME280;66534;52.370;4.832;2023-07-02T02:37:02;100695.44;;;15.62;100.00
69667;BME280;66534;52.370;4.832;2023-07-02T02:37:33;100694.72;;;15.60;100.00
69667;BME280;66534;52.370;4.832;2023-07-02T02:38:05;100692.72;;;15.63;100.00
69667;BME280;66534;52.370;4.832;2023-07-02T02:38:35;100702.34;;;15.64;100.00
69667;BME280;66534;52.370;4.832;2023-07-02T02:39:07;100701.69;;;15.61;100.00
69667;BME280;66534;52.370;4.832;2023-07-02T02:39:38;100698.75;;;15.65;100.00
69667;BME280;66534;52.370;4.832;2023-07-02T02:40:08;100703.94;;;15.67;100.00
69667;BME280;66534;52.370;4.832;2023-07-02T02:40:39;100700.25;;;15.69;100.00
69667;BME280;66534;52.370;4.832;2023-07-02T02:41:09;100698.06;;;15.62;100.00